Stout, IA (50673)

3:08 AM CST on January 27, 2015 (GMT -0600)
The Ridges | Change Station
CLOSE
Current Station
Personal Weather Station
Location: Cedar Falls, IA
Elevation: 945 ft
Nearby Weather Stations

Elev 945 ft 42.55 °N, 92.48 °W | Updated 13 minutes ago

Clear
Clear
31.8 °F
Feels Like 26 °F
N
5.8
Wind Variable Wind from NNW

Today
High -- | Low -- °F
--% Chance of Precip.
Yesterday
High -- | Low -- °F
Precip. -- in
7:30 AM 5:17 PM
First Quarter, 52% visible
Pressure 30.04 in
Visibility 10.0 miles
Clouds Clear
Windchill 26 °F
Dew Point 28 °F
Humidity 86%
Rainfall 0.00 in
Snow Depth Not available.
UV 0 out of 12
Pollen .10 out of 12
Air Quality Not available.
Flu Activity Not available.
METAR KALO 270854Z AUTO 34011KT 10SM CLR M01/M02 A3001 RMK AO2 SLP170 T10061017 51021

More Conditions Fewer Conditions

Pressure 30.04 in
Visibility 10.0 miles
Clouds Clear
Windchill 26 °F
Dew Point 28 °F
Humidity 86%
Rainfall 0.00 in
Snow Depth Not available.
UV 0 out of 12
Pollen .10 out of 12
Air Quality Not available.
Flu Activity Not available.
METAR KALO 270854Z AUTO 34011KT 10SM CLR M01/M02 A3001 RMK AO2 SLP170 T10061017 51021

More Conditions Fewer Conditions

10-Day Weather Forecast

Almanac

Astronomy

Jan. 27, 2015 Rise Set
Actual Time
Civil Twilight
Nautical Twilight
Astronomical Twilight
Moon
Length of Visible Light
Length of Day
Tomorrow will be .
, % of the Moon is Illuminated

Today's Extremes

State Highs State Lows

Community

WunderPhotos

Upload Photos

1,790,555 photos uploaded!

WunderBlogs® & News

Nearby

Air Quality

  Air Quality AQ Index Pollutant
Not available.

Snow Depth

Station Depth Elevation

Earthquake Activity

City Distance Mag. Time & Date
Minimum magnitude displayed is 2.5.

Coastal Water Temperatures

Place Temperature

Nearby Weather Stations